Time;durP1;ratioP1;P1;durP2;ratioP2;P2;SDS_P1;SDS_P2;PMS_P1;PMS_P2;Temp;Humidity;BMP_temperature;BMP_pressure;BME280_temperature;BME280_humidity;BME280_pressure;Samples;Min_cycle;Max_cycle;Signal;HPM_P1;HPM_P2
2021/08/01 00:01:04;;;;;;;0.50;0.40;;;15.80;99.90;;;;;;5021712;28;20439;-82
2021/08/01 00:03:32;;;;;;;0.50;0.30;;;15.80;99.90;;;;;;5022281;28;20443;-83
2021/08/01 00:05:58;;;;;;;0.50;0.40;;;15.80;99.90;;;;;;5022118;28;20439;-83
2021/08/01 00:08:25;;;;;;;0.67;0.67;;;15.80;99.90;;;;;;5022481;28;20467;-82
2021/08/01 00:10:52;;;;;;;0.63;0.63;;;15.80;99.90;;;;;;5021730;28;20436;-82
2021/08/01 00:13:19;;;;;;;0.80;0.80;;;15.80;99.90;;;;;;5022456;28;20435;-82
2021/08/01 00:15:47;;;;;;;0.50;0.40;;;15.80;99.90;;;;;;5021265;28;20458;-82
2021/08/01 00:18:14;;;;;;;0.50;0.30;;;15.80;99.90;;;;;;5021648;28;20455;-82
2021/08/01 00:20:41;;;;;;;0.60;0.50;;;15.80;99.90;;;;;;5021398;28;20443;-80
2021/08/01 00:23:08;;;;;;;0.50;0.40;;;15.90;99.90;;;;;;5021219;28;20813;-82
2021/08/01 00:25:35;;;;;;;0.50;0.30;;;15.80;99.90;;;;;;5021400;28;20444;-82
2021/08/01 00:28:02;;;;;;;0.50;0.30;;;15.90;99.90;;;;;;5021109;28;20470;-81
2021/08/01 00:30:29;;;;;;;0.87;0.50;;;15.80;99.90;;;;;;5019832;28;20450;-83
2021/08/01 00:32:57;;;;;;;0.50;0.30;;;15.80;99.90;;;;;;5020899;28;20799;-82
2021/08/01 00:35:23;;;;;;;0.50;0.30;;;15.80;99.90;;;;;;5021016;28;20448;-82
2021/08/01 00:37:50;;;;;;;0.50;0.30;;;15.70;99.90;;;;;;5021207;28;20522;-82
2021/08/01 00:40:19;;;;;;;0.50;0.30;;;15.70;99.90;;;;;;5020908;28;20447;-81
2021/08/01 00:42:46;;;;;;;0.50;0.30;;;15.70;99.90;;;;;;5021780;28;20478;-82
2021/08/01 00:45:14;;;;;;;0.50;0.30;;;15.70;99.90;;;;;;5021678;28;20440;-82
2021/08/01 00:47:42;;;;;;;2.00;1.90;;;15.70;99.90;;;;;;5021261;28;20748;-82
2021/08/01 00:50:12;;;;;;;0.50;0.30;;;15.70;99.90;;;;;;5020957;28;20450;-81
2021/08/01 00:52:40;;;;;;;0.50;0.30;;;15.60;99.90;;;;;;5021814;28;20464;-83
2021/08/01 00:55:08;;;;;;;0.50;0.30;;;15.60;99.90;;;;;;5021058;28;20447;-83
2021/08/01 00:57:35;;;;;;;0.50;0.30;;;15.50;99.90;;;;;;5020723;28;20482;-82
2021/08/01 01:00:03;;;;;;;0.70;0.70;;;15.40;99.90;;;;;;5020432;28;20443;-83
2021/08/01 01:02:36;;;;;;;0.50;0.40;;;15.40;99.90;;;;;;5020520;28;20453;-82
2021/08/01 01:05:07;;;;;;;0.50;0.40;;;15.40;99.90;;;;;;5021141;28;20431;-83
2021/08/01 01:07:40;;;;;;;0.63;0.57;;;15.40;99.90;;;;;;5021377;28;20427;-83
2021/08/01 01:10:10;;;;;;;1.37;1.37;;;15.40;99.90;;;;;;5021799;28;20449;-79
2021/08/01 01:12:40;;;;;;;0.50;0.30;;;15.40;99.90;;;;;;5020835;28;20442;-83
2021/08/01 01:15:11;;;;;;;0.97;0.73;;;15.50;99.90;;;;;;5021402;28;20808;-82
2021/08/01 01:17:42;;;;;;;0.50;0.30;;;15.50;99.90;;;;;;5021601;28;20521;-82
2021/08/01 01:20:32;;;;;;;0.50;0.40;;;15.50;99.90;;;;;;5020373;28;20446;-82
2021/08/01 01:23:25;;;;;;;1.07;1.07;;;15.50;99.90;;;;;;5021176;28;20451;-81
2021/08/01 01:26:00;;;;;;;0.50;0.30;;;15.50;99.90;;;;;;5020839;28;20442;-82
2021/08/01 01:28:34;;;;;;;1.37;1.27;;;15.60;99.90;;;;;;5021117;28;20461;-82
2021/08/01 01:31:10;;;;;;;0.50;0.50;;;15.60;99.90;;;;;;5019901;28;20426;-79
2021/08/01 01:33:41;;;;;;;0.50;0.30;;;15.60;99.90;;;;;;5021856;28;20428;-82
2021/08/01 01:36:08;;;;;;;0.97;0.97;;;15.60;99.90;;;;;;5021330;28;20453;-82
2021/08/01 01:38:37;;;;;;;0.70;0.70;;;15.60;99.90;;;;;;5021178;28;20483;-82
2021/08/01 01:41:05;;;;;;;0.50;0.50;;;15.60;99.90;;;;;;5020256;28;20470;-81
2021/08/01 01:43:33;;;;;;;0.50;0.40;;;15.60;99.90;;;;;;5020508;28;20442;-82
2021/08/01 01:46:01;;;;;;;0.50;0.50;;;15.60;99.90;;;;;;5020757;28;20462;-82
2021/08/01 01:48:29;;;;;;;0.53;0.40;;;15.60;99.90;;;;;;5020636;28;21023;-82
2021/08/01 01:50:56;;;;;;;0.60;0.60;;;15.50;99.90;;;;;;5019531;28;20439;-82
2021/08/01 01:53:24;;;;;;;1.00;0.63;;;15.50;99.90;;;;;;5020958;28;20440;-83
2021/08/01 01:55:52;;;;;;;0.50;0.40;;;15.50;99.90;;;;;;5019852;28;20450;-82
2021/08/01 01:58:19;;;;;;;1.47;1.43;;;15.50;99.90;;;;;;5020703;28;20486;-82
2021/08/01 02:00:46;;;;;;;0.77;0.50;;;15.50;99.90;;;;;;5019746;28;20444;-83
2021/08/01 02:03:13;;;;;;;1.17;1.07;;;15.50;99.90;;;;;;5020165;28;20446;-82
2021/08/01 02:05:42;;;;;;;0.80;0.80;;;15.40;99.90;;;;;;5019152;28;20435;-80
2021/08/01 02:08:08;;;;;;;0.60;0.60;;;15.40;99.90;;;;;;5020137;28;20463;-82
2021/08/01 02:10:40;;;;;;;0.60;0.40;;;15.50;99.90;;;;;;5018999;28;20447;-81
2021/08/01 02:13:08;;;;;;;0.60;0.40;;;15.40;99.90;;;;;;5020536;28;20427;-82
2021/08/01 02:15:43;;;;;;;1.27;1.07;;;15.40;99.90;;;;;;5020599;28;20454;-81
2021/08/01 02:18:18;;;;;;;0.50;0.40;;;15.50;99.90;;;;;;5019516;28;20566;-82
2021/08/01 02:20:47;;;;;;;3.43;1.80;;;15.40;99.90;;;;;;5018824;28;20431;-82
2021/08/01 02:23:17;;;;;;;0.93;0.93;;;15.40;99.90;;;;;;5019720;28;20439;-81
2021/08/01 02:25:47;;;;;;;0.50;0.30;;;15.40;99.90;;;;;;5019309;28;20959;-82
2021/08/01 02:28:16;;;;;;;0.50;0.40;;;15.50;99.90;;;;;;5019951;28;20478;-82
2021/08/01 02:30:45;;;;;;;0.60;0.47;;;15.50;99.90;;;;;;5018704;28;20446;-82
2021/08/01 02:33:13;;;;;;;0.50;0.43;;;15.50;99.90;;;;;;5019362;28;20442;-81
2021/08/01 02:35:40;;;;;;;0.60;0.60;;;15.50;99.90;;;;;;5020038;28;20814;-82
2021/08/01 02:38:09;;;;;;;0.50;0.30;;;15.50;99.90;;;;;;5019849;28;21015;-82
2021/08/01 02:40:37;;;;;;;0.50;0.40;;;15.50;99.90;;;;;;5019569;28;20497;-82
2021/08/01 02:43:08;;;;;;;0.50;0.30;;;15.50;99.90;;;;;;5019583;28;20440;-81
2021/08/01 02:45:38;;;;;;;0.63;0.60;;;15.50;99.90;;;;;;5019723;28;20442;-82
2021/08/01 02:48:09;;;;;;;0.50;0.40;;;15.40;99.90;;;;;;5019306;28;20452;-82
2021/08/01 02:50:38;;;;;;;0.50;0.30;;;15.40;99.90;;;;;;5019585;28;20482;-82
2021/08/01 02:53:10;;;;;;;0.50;0.40;;;15.40;99.90;;;;;;5020637;28;20439;-82
2021/08/01 02:55:39;;;;;;;0.50;0.40;;;15.40;99.90;;;;;;5020413;28;20438;-83
2021/08/01 02:58:07;;;;;;;0.50;0.30;;;15.40;99.90;;;;;;5022000;28;20482;-83
2021/08/01 03:00:37;;;;;;;0.60;0.60;;;15.50;99.90;;;;;;5022932;28;20449;-81
2021/08/01 03:03:05;;;;;;;2.10;2.00;;;15.50;99.90;;;;;;5023612;28;20794;-82
2021/08/01 03:05:32;;;;;;;0.50;0.40;;;15.50;99.90;;;;;;5024315;28;20447;-78
2021/08/01 03:07:59;;;;;;;0.50;0.30;;;15.50;99.90;;;;;;5020723;28;20844;-80
2021/08/01 03:10:26;;;;;;;0.73;0.70;;;15.50;99.90;;;;;;5022252;28;20438;-81
2021/08/01 03:12:53;;;;;;;0.50;0.40;;;15.50;99.90;;;;;;5022091;28;20442;-82
2021/08/01 03:15:20;;;;;;;2.93;1.83;;;15.50;99.90;;;;;;5019710;28;20447;-80
2021/08/01 03:17:48;;;;;;;0.80;0.73;;;15.60;99.90;;;;;;5019783;28;20855;-81
2021/08/01 03:20:14;;;;;;;1.90;1.80;;;15.50;99.90;;;;;;5021975;28;20450;-78
2021/08/01 03:22:41;;;;;;;1.07;0.60;;;15.50;99.90;;;;;;5023240;28;20442;-82
2021/08/01 03:25:09;;;;;;;0.60;0.40;;;15.50;99.90;;;;;;5025410;28;20446;-82
2021/08/01 03:27:37;;;;;;;0.60;0.50;;;15.50;99.90;;;;;;5025533;28;20437;-82
2021/08/01 03:30:05;;;;;;;0.50;0.30;;;15.60;99.90;;;;;;5025812;28;20541;-81
2021/08/01 03:32:31;;;;;;;0.50;0.30;;;15.60;99.90;;;;;;5025087;28;20435;-81
2021/08/01 03:34:59;;;;;;;0.70;0.70;;;15.60;99.90;;;;;;5023635;28;20439;-82
2021/08/01 03:37:27;;;;;;;0.50;0.30;;;15.60;99.90;;;;;;5022123;28;20475;-82
2021/08/01 03:39:54;;;;;;;0.70;0.70;;;15.60;99.90;;;;;;5020033;28;20477;-78
2021/08/01 03:42:21;;;;;;;1.33;1.23;;;15.60;99.90;;;;;;5017239;28;20442;-82
2021/08/01 03:44:48;;;;;;;0.70;0.70;;;15.60;99.90;;;;;;5017199;28;20465;-82
2021/08/01 03:47:15;;;;;;;0.53;0.40;;;15.60;99.90;;;;;;5017427;28;20447;-83
2021/08/01 03:49:43;;;;;;;0.50;0.40;;;15.70;99.90;;;;;;5017348;28;20864;-82
2021/08/01 03:52:11;;;;;;;0.50;0.50;;;15.70;99.90;;;;;;5017308;28;20501;-82
2021/08/01 03:54:38;;;;;;;0.50;0.30;;;15.70;99.90;;;;;;5016996;28;20450;-81
2021/08/01 03:57:05;;;;;;;0.50;0.40;;;15.70;99.90;;;;;;5017211;28;20449;-82
2021/08/01 03:59:35;;;;;;;2.90;2.80;;;15.70;99.90;;;;;;5017312;28;20462;-82
2021/08/01 04:02:02;;;;;;;0.83;0.83;;;15.70;99.90;;;;;;5017702;28;20443;-83
2021/08/01 04:04:29;;;;;;;0.80;0.80;;;15.70;99.90;;;;;;5019181;28;20460;-81
2021/08/01 04:06:56;;;;;;;0.50;0.30;;;15.70;99.90;;;;;;5019864;28;20443;-81
2021/08/01 04:09:24;;;;;;;0.60;0.60;;;15.70;99.90;;;;;;5021099;28;20466;-79
2021/08/01 04:11:50;;;;;;;0.53;0.50;;;15.70;99.90;;;;;;5020581;28;20451;-81
2021/08/01 04:14:17;;;;;;;0.50;0.40;;;15.70;99.90;;;;;;5020330;28;20443;-81
2021/08/01 04:16:44;;;;;;;2.10;2.00;;;15.70;99.90;;;;;;5019192;28;20435;-81
2021/08/01 04:19:13;;;;;;;0.50;0.40;;;15.70;99.90;;;;;;5018500;28;20543;-81
2021/08/01 04:21:40;;;;;;;4.10;2.67;;;15.60;99.90;;;;;;5019168;28;21023;-82
2021/08/01 04:24:07;;;;;;;1.37;1.37;;;15.60;99.90;;;;;;5018365;28;20442;-82
2021/08/01 04:26:36;;;;;;;0.97;0.97;;;15.60;99.90;;;;;;5020902;28;20497;-79
2021/08/01 04:29:03;;;;;;;2.60;1.50;;;15.60;99.90;;;;;;5020104;28;20466;-81
2021/08/01 04:31:29;;;;;;;2.07;1.10;;;15.60;99.90;;;;;;5017535;28;20446;-83
2021/08/01 04:33:56;;;;;;;0.50;0.43;;;15.60;99.90;;;;;;5018590;28;20476;-81
2021/08/01 04:36:23;;;;;;;1.87;1.53;;;15.70;99.90;;;;;;5021323;28;20948;-81
2021/08/01 04:38:50;;;;;;;1.47;1.37;;;15.70;99.90;;;;;;5018709;28;20575;-81
2021/08/01 04:41:16;;;;;;;0.50;0.40;;;15.70;99.90;;;;;;5017776;28;20442;-81
2021/08/01 04:43:44;;;;;;;0.83;0.70;;;15.70;99.90;;;;;;5019883;28;20451;-82
2021/08/01 04:46:11;;;;;;;0.60;0.50;;;15.70;99.90;;;;;;5018744;28;20443;-82
2021/08/01 04:48:38;;;;;;;0.50;0.40;;;15.70;99.90;;;;;;5018494;28;20462;-81
2021/08/01 04:51:05;;;;;;;0.67;0.63;;;15.70;99.90;;;;;;5017331;28;20975;-82
2021/08/01 04:53:31;;;;;;;1.83;1.30;;;15.70;99.90;;;;;;5015678;28;20439;-81
2021/08/01 04:55:58;;;;;;;2.00;1.90;;;15.70;99.90;;;;;;5015354;28;20451;-81
2021/08/01 04:58:25;;;;;;;3.10;1.43;;;15.70;99.90;;;;;;5015487;28;20485;-82
2021/08/01 05:00:53;;;;;;;2.40;1.83;;;15.70;99.90;;;;;;5015606;28;20435;-81
2021/08/01 05:03:20;;;;;;;0.50;0.40;;;15.70;99.90;;;;;;5015823;28;20454;-83
2021/08/01 05:05:47;;;;;;;0.60;0.50;;;15.70;99.90;;;;;;5015443;28;20447;-82
2021/08/01 05:08:13;;;;;;;0.50;0.40;;;15.70;99.90;;;;;;5015171;28;20553;-81
2021/08/01 05:10:40;;;;;;;3.60;3.27;;;15.70;99.90;;;;;;5014754;28;20450;-82
2021/08/01 05:13:07;;;;;;;2.93;1.03;;;15.80;99.90;;;;;;5015511;28;20440;-80
2021/08/01 05:15:34;;;;;;;0.50;0.40;;;15.80;99.90;;;;;;5014806;28;20442;-80
2021/08/01 05:18:03;;;;;;;0.50;0.33;;;15.90;99.90;;;;;;5015362;28;20483;-82
2021/08/01 05:20:31;;;;;;;0.70;0.60;;;15.90;99.90;;;;;;5014788;28;20450;-82
2021/08/01 05:22:57;;;;;;;0.57;0.57;;;16.00;99.90;;;;;;5014957;28;20447;-82
2021/08/01 05:25:24;;;;;;;0.60;0.53;;;16.10;99.90;;;;;;5014619;28;20447;-80
2021/08/01 05:27:51;;;;;;;1.17;0.90;;;16.10;99.90;;;;;;5014982;28;20778;-80
2021/08/01 05:30:18;;;;;;;1.40;1.17;;;16.10;99.90;;;;;;5015046;28;20451;-82
2021/08/01 05:32:44;;;;;;;2.00;1.90;;;16.10;99.90;;;;;;5014485;28;20447;-81
2021/08/01 05:35:12;;;;;;;1.90;1.80;;;16.20;99.90;;;;;;5015265;28;20956;-81
2021/08/01 05:37:39;;;;;;;0.60;0.60;;;16.30;99.90;;;;;;5014729;28;20458;-82
2021/08/01 05:40:08;;;;;;;1.20;1.10;;;16.30;99.90;;;;;;5014418;28;20451;-80
2021/08/01 05:42:35;;;;;;;0.50;0.40;;;16.30;99.90;;;;;;5014685;28;20450;-81
2021/08/01 05:45:02;;;;;;;3.03;2.80;;;16.20;99.90;;;;;;5014414;28;20462;-82
2021/08/01 05:47:29;;;;;;;1.17;1.07;;;16.20;99.90;;;;;;5014702;28;20454;-82
2021/08/01 05:49:56;;;;;;;0.50;0.30;;;16.10;99.90;;;;;;5014445;28;20449;-81
2021/08/01 05:52:24;;;;;;;0.70;0.70;;;16.00;99.90;;;;;;5013990;28;20441;-82
2021/08/01 05:54:53;;;;;;;0.50;0.30;;;15.90;99.90;;;;;;5014791;28;20452;-82
2021/08/01 05:57:20;;;;;;;0.97;0.97;;;15.90;99.90;;;;;;5014849;28;20435;-81
2021/08/01 05:59:46;;;;;;;1.00;0.90;;;16.00;99.90;;;;;;5014168;28;20482;-81
2021/08/01 06:02:14;;;;;;;0.93;0.50;;;16.20;99.90;;;;;;5013988;28;20443;-80
2021/08/01 06:04:41;;;;;;;3.90;2.90;;;16.40;99.90;;;;;;5014711;28;20450;-81
2021/08/01 06:07:08;;;;;;;1.60;1.50;;;16.70;99.90;;;;;;5014496;28;20439;-80
2021/08/01 06:09:39;;;;;;;2.43;1.13;;;16.90;99.90;;;;;;5015208;28;20463;-81
2021/08/01 06:12:06;;;;;;;1.50;1.30;;;17.30;99.90;;;;;;5013771;28;20435;-80
2021/08/01 06:14:33;;;;;;;0.80;0.70;;;17.70;99.90;;;;;;5015034;28;20443;-80
2021/08/01 06:17:00;;;;;;;0.50;0.40;;;18.20;99.90;;;;;;5014759;28;20440;-81
2021/08/01 06:19:26;;;;;;;2.93;2.50;;;18.30;99.90;;;;;;5013938;28;20861;-82
2021/08/01 06:21:53;;;;;;;1.60;1.50;;;18.50;99.90;;;;;;5014319;28;20450;-82
2021/08/01 06:24:20;;;;;;;3.50;3.13;;;18.10;99.90;;;;;;5014378;28;20454;-80
2021/08/01 06:26:48;;;;;;;0.80;0.80;;;17.90;99.90;;;;;;5014109;28;20945;-81
2021/08/01 06:29:16;;;;;;;1.10;1.00;;;17.60;99.90;;;;;;5013942;28;20451;-81
2021/08/01 06:31:43;;;;;;;0.50;0.30;;;17.50;99.90;;;;;;5014066;28;20447;-81
2021/08/01 06:34:09;;;;;;;1.17;1.03;;;17.50;99.90;;;;;;5014028;28;20439;-82
2021/08/01 06:36:36;;;;;;;0.73;0.50;;;17.80;99.90;;;;;;5014555;28;20451;-79
2021/08/01 06:39:03;;;;;;;1.67;1.57;;;18.30;99.90;;;;;;5013489;28;20485;-80
2021/08/01 06:41:30;;;;;;;0.50;0.30;;;18.50;99.90;;;;;;5013813;28;20813;-80
2021/08/01 06:43:58;;;;;;;0.60;0.57;;;18.40;99.90;;;;;;5014358;28;20444;-82
2021/08/01 06:46:24;;;;;;;1.70;0.60;;;18.70;99.90;;;;;;5014517;28;20902;-81
2021/08/01 06:48:51;;;;;;;1.83;1.73;;;18.90;99.90;;;;;;5013695;28;20451;-81
2021/08/01 06:51:18;;;;;;;3.70;3.50;;;19.10;99.90;;;;;;5014149;28;20445;-81
2021/08/01 06:53:45;;;;;;;2.57;2.47;;;19.00;99.90;;;;;;5014676;28;20443;-82
2021/08/01 06:56:11;;;;;;;1.90;1.80;;;18.90;99.90;;;;;;5014184;28;20439;-82
2021/08/01 06:58:38;;;;;;;1.90;1.80;;;18.60;99.90;;;;;;5017577;28;20479;-79
2021/08/01 07:01:06;;;;;;;0.53;0.43;;;18.90;99.90;;;;;;5017601;28;20454;-81
2021/08/01 07:03:33;;;;;;;0.70;0.70;;;19.30;99.90;;;;;;5017952;28;20807;-81
2021/08/01 07:06:00;;;;;;;2.67;1.70;;;19.50;99.90;;;;;;5018188;28;20449;-81
2021/08/01 07:08:26;;;;;;;8.87;5.33;;;19.70;99.90;;;;;;5017438;28;20458;-82
2021/08/01 07:10:53;;;;;;;0.83;0.83;;;19.70;99.90;;;;;;5018076;28;20439;-80
2021/08/01 07:13:20;;;;;;;3.87;3.57;;;19.70;99.90;;;;;;5017945;28;20524;-82
2021/08/01 07:15:48;;;;;;;3.10;2.90;;;19.80;99.90;;;;;;5017827;28;20439;-82
2021/08/01 07:18:16;;;;;;;0.50;0.40;;;19.70;99.90;;;;;;5017434;28;20495;-82
2021/08/01 07:20:43;;;;;;;1.53;1.47;;;19.50;99.90;;;;;;5016675;28;20497;-81
2021/08/01 07:23:10;;;;;;;0.50;0.30;;;19.80;99.90;;;;;;5017367;28;20454;-81
2021/08/01 07:25:37;;;;;;;0.50;0.40;;;20.90;99.90;;;;;;5019011;28;20444;-82
2021/08/01 07:28:05;;;;;;;0.50;0.40;;;22.60;99.90;;;;;;5024010;28;21045;-82
2021/08/01 07:30:31;;;;;;;0.50;0.30;;;24.90;99.90;;;;;;5017758;28;20439;-82
2021/08/01 07:32:58;;;;;;;0.50;0.30;;;27.00;99.90;;;;;;5017290;28;20443;-82
2021/08/01 07:35:26;;;;;;;0.80;0.80;;;26.90;99.90;;;;;;5017113;28;20944;-82
2021/08/01 07:37:53;;;;;;;0.57;0.30;;;27.00;99.90;;;;;;5017042;28;20467;-82
2021/08/01 07:40:20;;;;;;;0.50;0.40;;;27.90;99.90;;;;;;5017015;28;20506;-83
2021/08/01 07:42:47;;;;;;;1.30;1.20;;;27.60;99.90;;;;;;5015065;23;20495;-87
2021/08/01 07:45:23;;;;;;;0.50;0.30;;;26.00;99.90;;;;;;4995911;28;20446;-86
2021/08/01 07:47:49;;;;;;;2.37;2.17;;;24.80;99.90;;;;;;5002583;28;20447;-87
2021/08/01 07:50:17;;;;;;;1.63;0.80;;;24.60;99.90;;;;;;5001104;28;20431;-87
2021/08/01 07:52:45;;;;;;;0.50;0.33;;;23.40;99.90;;;;;;4983159;28;20999;-87
2021/08/01 07:55:15;;;;;;;0.53;0.43;;;22.40;99.90;;;;;;4983865;28;20453;-86
2021/08/01 07:57:43;;;;;;;2.53;1.27;;;21.60;99.90;;;;;;4983653;28;20444;-85
2021/08/01 08:00:12;;;;;;;0.60;0.50;;;20.90;99.90;;;;;;4983902;28;20477;-84
2021/08/01 08:02:39;;;;;;;0.50;0.40;;;20.30;99.90;;;;;;4987633;28;20788;-85
2021/08/01 08:05:06;;;;;;;0.93;0.93;;;20.10;99.90;;;;;;4988994;28;20453;-84
2021/08/01 08:07:33;;;;;;;0.50;0.40;;;20.10;99.90;;;;;;4987408;28;20442;-85
2021/08/01 08:10:01;;;;;;;1.63;1.43;;;19.80;99.90;;;;;;4987344;28;20505;-85
2021/08/01 08:12:28;;;;;;;1.73;1.63;;;19.70;99.90;;;;;;4986534;28;20465;-83
2021/08/01 08:14:55;;;;;;;1.97;1.87;;;19.90;99.90;;;;;;4987976;28;20444;-84
2021/08/01 08:17:21;;;;;;;0.50;0.40;;;19.90;99.90;;;;;;4988021;28;20446;-85
2021/08/01 08:19:48;;;;;;;0.73;0.40;;;20.00;99.90;;;;;;4986819;28;20484;-84
2021/08/01 08:22:15;;;;;;;2.10;2.00;;;20.30;99.90;;;;;;4985818;28;20462;-83
2021/08/01 08:24:42;;;;;;;1.83;1.73;;;21.30;99.90;;;;;;4987915;28;20455;-85
2021/08/01 08:27:10;;;;;;;2.20;1.57;;;22.60;99.90;;;;;;4988058;28;20520;-85
2021/08/01 08:29:36;;;;;;;0.90;0.90;;;23.30;99.90;;;;;;4986597;28;20906;-85
2021/08/01 08:32:04;;;;;;;1.03;0.80;;;23.00;99.90;;;;;;4985451;28;20473;-81
2021/08/01 08:34:30;;;;;;;0.50;0.40;;;23.40;99.90;;;;;;4987421;28;20443;-85
2021/08/01 08:37:00;;;;;;;1.40;1.30;;;23.10;99.90;;;;;;4986105;28;20449;-85
2021/08/01 08:39:28;;;;;;;1.03;1.03;;;23.90;99.90;;;;;;4987310;28;20566;-85
2021/08/01 08:41:58;;;;;;;8.13;2.60;;;24.20;99.90;;;;;;4986280;28;20473;-85
2021/08/01 08:44:26;;;;;;;1.97;1.37;;;24.50;99.90;;;;;;4986946;28;20436;-84
2021/08/01 08:46:54;;;;;;;4.77;2.90;;;25.90;99.90;;;;;;4986272;28;20444;-84
2021/08/01 08:49:22;;;;;;;0.50;0.30;;;26.40;99.90;;;;;;4986625;28;20448;-86
2021/08/01 08:51:51;;;;;;;0.50;0.30;;;26.30;99.90;;;;;;4987359;28;20834;-85
2021/08/01 08:54:23;;;;;;;0.50;0.30;;;26.90;99.90;;;;;;4987720;28;20448;-86
2021/08/01 08:56:51;;;;;;;1.57;1.17;;;26.90;99.90;;;;;;4987179;28;20433;-85
2021/08/01 08:59:19;;;;;;;0.50;0.30;;;25.90;99.90;;;;;;4987296;28;20544;-86
2021/08/01 09:01:47;;;;;;;2.30;1.10;;;25.70;99.90;;;;;;4986679;28;20465;-85
2021/08/01 09:04:14;;;;;;;1.73;0.87;;;25.00;99.90;;;;;;4986361;28;20824;-84
2021/08/01 09:06:41;;;;;;;0.60;0.30;;;24.20;99.90;;;;;;4986197;28;21019;-86
2021/08/01 09:09:09;;;;;;;2.40;0.90;;;24.70;99.90;;;;;;4988487;28;20464;-85
2021/08/01 09:11:36;;;;;;;0.50;0.30;;;24.60;99.90;;;;;;4987579;28;20471;-85
2021/08/01 09:14:04;;;;;;;0.70;0.67;;;24.60;99.90;;;;;;4987264;28;20445;-84
2021/08/01 09:16:45;;;;;;;0.50;0.40;;;24.90;99.90;;;;;;4984009;28;20504;-84
2021/08/01 09:19:30;;;;;;;0.50;0.40;;;23.90;99.90;;;;;;4985228;28;21180;-84
2021/08/01 09:22:12;;;;;;;0.50;0.40;;;23.60;99.90;;;;;;4985306;28;20469;-85
2021/08/01 09:24:39;;;;;;;1.80;1.70;;;24.00;99.90;;;;;;4985344;28;20455;-84
2021/08/01 09:27:06;;;;;;;35.90;2.37;;;25.40;99.90;;;;;;4983754;28;20439;-85
2021/08/01 09:29:47;;;;;;;2.60;1.33;;;25.80;99.90;;;;;;4983625;28;20444;-84
2021/08/01 09:32:14;;;;;;;1.23;0.70;;;26.20;99.90;;;;;;4983684;28;20457;-87
2021/08/01 09:34:46;;;;;;;1.80;1.70;;;25.60;99.90;;;;;;4981507;28;20449;-86
2021/08/01 09:37:13;;;;;;;0.53;0.40;;;24.80;99.90;;;;;;4981432;28;20426;-83
2021/08/01 09:39:41;;;;;;;2.30;2.13;;;25.40;99.90;;;;;;4982190;28;20821;-86
2021/08/01 09:42:09;;;;;;;1.60;1.50;;;24.70;99.90;;;;;;4980192;28;20473;-86
2021/08/01 09:44:38;;;;;;;0.60;0.50;;;24.20;99.90;;;;;;4980978;28;20452;-87
2021/08/01 09:47:05;;;;;;;1.63;1.33;;;24.20;99.90;;;;;;4981271;28;20445;-86
2021/08/01 09:49:32;;;;;;;1.80;1.70;;;24.50;99.90;;;;;;4981629;28;20553;-86
2021/08/01 09:52:02;;;;;;;0.90;0.90;;;23.90;99.90;;;;;;4980365;28;20472;-86
2021/08/01 09:54:45;;;;;;;0.93;0.93;;;24.30;99.90;;;;;;4980881;28;20535;-85
2021/08/01 09:57:17;;;;;;;0.67;0.60;;;23.20;99.90;;;;;;4979546;28;20448;-84
2021/08/01 09:59:44;;;;;;;2.13;1.57;;;23.40;99.90;;;;;;4981646;28;20488;-85
2021/08/01 10:02:11;;;;;;;3.90;1.80;;;22.90;99.90;;;;;;4963822;28;20467;-86
2021/08/01 10:04:38;;;;;;;0.90;0.80;;;23.40;99.90;;;;;;4981541;28;20447;-83
2021/08/01 10:07:08;;;;;;;1.30;1.20;;;23.90;99.90;;;;;;4981205;28;20449;-86
2021/08/01 10:09:36;;;;;;;25.13;0.90;;;24.60;99.90;;;;;;4983637;28;20445;-87
2021/08/01 10:12:03;;;;;;;3.13;2.40;;;25.30;99.90;;;;;;4982786;28;20489;-87
2021/08/01 10:14:30;;;;;;;1.13;1.03;;;25.60;99.90;;;;;;4981781;28;20447;-86
2021/08/01 10:16:58;;;;;;;1.37;0.67;;;25.60;99.90;;;;;;4982169;28;20437;-87
2021/08/01 10:19:25;;;;;;;1.33;1.23;;;25.20;99.90;;;;;;4981371;28;20477;-85
2021/08/01 10:21:57;;;;;;;4.20;2.93;;;25.20;99.90;;;;;;4980449;28;20457;-86
2021/08/01 10:24:27;;;;;;;2.00;0.70;;;25.00;99.90;;;;;;4981571;28;20433;-86
2021/08/01 10:26:57;;;;;;;3.33;3.13;;;24.70;99.90;;;;;;4982209;28;20449;-86
2021/08/01 10:29:40;;;;;;;0.70;0.70;;;24.20;99.90;;;;;;4981909;28;20440;-86
2021/08/01 10:32:10;;;;;;;6.57;3.07;;;24.00;99.90;;;;;;4981889;28;20464;-84
2021/08/01 10:34:46;;;;;;;1.23;1.13;;;23.10;99.90;;;;;;4981408;28;20827;-87
2021/08/01 10:37:20;;;;;;;1.00;0.87;;;22.80;99.90;;;;;;4980812;28;20911;-83
2021/08/01 10:39:49;;;;;;;0.50;0.40;;;22.70;99.90;;;;;;4983016;28;20488;-87
2021/08/01 10:42:19;;;;;;;2.93;0.70;;;23.20;99.90;;;;;;4981876;28;20480;-84
2021/08/01 10:44:45;;;;;;;3.47;1.67;;;23.10;99.90;;;;;;4982863;28;20452;-86
2021/08/01 10:47:14;;;;;;;2.57;0.63;;;23.00;99.90;;;;;;4981387;28;20452;-81
2021/08/01 10:49:42;;;;;;;1.37;1.17;;;22.60;99.90;;;;;;4981227;28;20436;-85
2021/08/01 10:52:11;;;;;;;1.53;1.17;;;22.40;99.90;;;;;;4982096;28;20965;-86
2021/08/01 10:54:38;;;;;;;0.50;0.40;;;22.10;99.90;;;;;;4981907;28;20500;-86
2021/08/01 10:57:20;;;;;;;7.23;3.00;;;22.00;99.90;;;;;;4981134;28;20478;-85
2021/08/01 11:00:10;;;;;;;1.73;1.63;;;22.50;99.90;;;;;;4981980;28;20468;-86
2021/08/01 11:02:38;;;;;;;0.67;0.53;;;22.80;99.90;;;;;;4974492;28;20471;-86
2021/08/01 11:05:34;;;;;;;1.13;1.13;;;23.30;99.90;;;;;;4981911;28;20453;-86
2021/08/01 11:08:02;;;;;;;0.50;0.30;;;24.10;99.90;;;;;;4981990;28;20440;-87
2021/08/01 11:10:29;;;;;;;1.03;0.93;;;25.00;99.90;;;;;;4979924;28;20517;-86
2021/08/01 11:12:58;;;;;;;1.57;1.47;;;25.90;99.90;;;;;;4982841;28;20457;-85
2021/08/01 11:15:45;;;;;;;2.10;1.00;;;26.00;99.90;;;;;;4981029;28;20444;-86
2021/08/01 11:18:12;;;;;;;2.77;1.40;;;25.40;99.90;;;;;;4981061;28;20484;-87
2021/08/01 11:20:48;;;;;;;0.80;0.80;;;25.00;99.90;;;;;;4982106;28;20495;-87
2021/08/01 11:23:15;;;;;;;0.57;0.40;;;25.80;99.90;;;;;;4981544;28;20496;-85
2021/08/01 11:25:44;;;;;;;1.70;0.70;;;26.70;99.40;;;;;;4982031;28;20450;-86
2021/08/01 11:28:28;;;;;;;0.87;0.83;;;26.90;94.60;;;;;;4983297;28;20469;-84
2021/08/01 11:31:22;;;;;;;0.50;0.40;;;26.90;96.20;;;;;;4994658;28;20481;-85
2021/08/01 11:33:54;;;;;;;0.50;0.40;;;26.60;95.50;;;;;;4948379;28;20441;-86
2021/08/01 11:36:23;;;;;;;0.90;0.90;;;25.10;99.90;;;;;;4983109;28;20961;-88
2021/08/01 11:39:06;;;;;;;0.90;0.90;;;25.00;99.90;;;;;;4984225;28;20437;-86
2021/08/01 11:41:42;;;;;;;0.50;0.40;;;25.50;99.90;;;;;;4982401;28;20478;-86
2021/08/01 11:44:12;;;;;;;0.50;0.33;;;25.80;99.90;;;;;;4986975;28;20464;-83
2021/08/01 11:46:58;;;;;;;0.50;0.40;;;25.80;99.90;;;;;;4987103;28;20531;-87
2021/08/01 11:49:27;;;;;;;0.50;0.30;;;26.20;99.90;;;;;;4986155;28;20479;-87
2021/08/01 11:51:55;;;;;;;0.50;0.40;;;26.20;99.90;;;;;;4985762;28;20457;-86
2021/08/01 11:54:27;;;;;;;0.50;0.30;;;26.10;99.90;;;;;;4986184;28;20441;-87
2021/08/01 11:56:56;;;;;;;0.50;0.30;;;25.60;99.90;;;;;;4986331;28;20488;-87
2021/08/01 11:59:25;;;;;;;0.80;0.80;;;26.30;99.90;;;;;;4985271;28;20455;-87
2021/08/01 12:01:53;;;;;;;0.70;0.57;;;26.40;97.10;;;;;;4984745;28;20484;-87
2021/08/01 12:04:20;;;;;;;1.03;0.93;;;27.00;92.70;;;;;;4985377;28;20449;-88
2021/08/01 12:06:47;;;;;;;0.80;0.80;;;27.80;94.20;;;;;;4985395;28;20482;-86
2021/08/01 12:09:18;;;;;;;0.50;0.40;;;27.90;95.70;;;;;;4984157;28;20449;-86
2021/08/01 12:11:46;;;;;;;0.50;0.30;;;27.90;90.70;;;;;;4990788;28;21096;-87
2021/08/01 12:14:14;;;;;;;0.50;0.30;;;28.00;84.20;;;;;;4985521;28;20448;-87
2021/08/01 12:17:03;;;;;;;2.00;1.17;;;27.40;86.00;;;;;;4985170;28;20445;-86
2021/08/01 12:19:33;;;;;;;0.97;0.97;;;25.60;92.90;;;;;;4986191;28;20433;-86
2021/08/01 12:22:07;;;;;;;0.50;0.30;;;25.10;99.90;;;;;;4984967;28;20453;-86
2021/08/01 12:24:39;;;;;;;0.50;0.40;;;25.10;99.90;;;;;;4985246;28;20455;-87
2021/08/01 12:27:08;;;;;;;0.50;0.40;;;24.70;99.90;;;;;;4985397;28;20434;-86
2021/08/01 12:29:38;;;;;;;0.50;0.40;;;24.90;99.90;;;;;;4984792;28;20434;-87
2021/08/01 12:32:20;;;;;;;0.70;0.70;;;25.30;99.90;;;;;;4984267;28;20457;-85
2021/08/01 12:34:47;;;;;;;0.50;0.30;;;26.00;99.90;;;;;;4985017;28;20814;-87
2021/08/01 12:37:14;;;;;;;0.57;0.53;;;25.80;99.90;;;;;;4985099;28;20441;-82
2021/08/01 12:39:48;;;;;;;0.70;0.60;;;25.60;99.90;;;;;;4984554;28;20935;-87
2021/08/01 12:42:15;;;;;;;1.70;0.60;;;26.10;99.90;;;;;;4983569;28;20479;-87
2021/08/01 12:44:54;;;;;;;0.50;0.30;;;26.50;99.90;;;;;;4984882;28;20449;-86
2021/08/01 12:47:24;;;;;;;0.60;0.60;;;26.80;96.00;;;;;;4985807;28;20447;-87
2021/08/01 12:49:51;;;;;;;0.60;0.60;;;27.50;92.20;;;;;;4985156;28;20437;-87
2021/08/01 12:52:23;;;;;;;0.70;0.50;;;27.60;87.20;;;;;;4984219;28;20991;-87
2021/08/01 12:54:51;;;;;;;17.27;1.07;;;27.60;85.50;;;;;;4982645;28;20424;-86